sensor_id;sensor_type;location;lat;lon;timestamp;pressure;altitude;pressure_sealevel;temperature;humidity
20455;BME280;10386;54.314;10.022;2023-01-28T00:01:06;102952.44;;;0.68;100.00
20455;BME280;10386;54.314;10.022;2023-01-28T00:03:33;102952.44;;;0.79;100.00
20455;BME280;10386;54.314;10.022;2023-01-28T00:06:13;102938.19;;;0.83;100.00
20455;BME280;10386;54.314;10.022;2023-01-28T00:08:40;102926.59;;;0.84;100.00
20455;BME280;10386;54.314;10.022;2023-01-28T00:11:10;102931.97;;;0.82;100.00
20455;BME280;10386;54.314;10.022;2023-01-28T00:13:37;102950.59;;;0.60;100.00
20455;BME280;10386;54.314;10.022;2023-01-28T00:16:06;102951.50;;;0.65;100.00
20455;BME280;10386;54.314;10.022;2023-01-28T00:18:34;102947.06;;;0.65;100.00
20455;BME280;10386;54.314;10.022;2023-01-28T00:21:08;102950.63;;;0.61;100.00
20455;BME280;10386;54.314;10.022;2023-01-28T00:23:36;102958.63;;;0.66;100.00
20455;BME280;10386;54.314;10.022;2023-01-28T00:26:06;102962.19;;;0.62;100.00
20455;BME280;10386;54.314;10.022;2023-01-28T00:28:33;102961.31;;;0.63;100.00
20455;BME280;10386;54.314;10.022;2023-01-28T00:31:08;102962.19;;;0.62;100.00
20455;BME280;10386;54.314;10.022;2023-01-28T00:33:36;102955.97;;;0.69;100.00
20455;BME280;10386;54.314;10.022;2023-01-28T00:36:04;102950.63;;;0.67;100.00
20455;BME280;10386;54.314;10.022;2023-01-28T00:38:32;102949.75;;;0.62;100.00
20455;BME280;10386;54.314;10.022;2023-01-28T00:43:36;102955.09;;;0.71;100.00
20455;BME280;10386;54.314;10.022;2023-01-28T00:46:04;102948.00;;;0.79;100.00
20455;BME280;10386;54.314;10.022;2023-01-28T00:48:33;102940.91;;;0.89;100.00
20455;BME280;10386;54.314;10.022;2023-01-28T00:51:00;102941.78;;;0.88;100.00
20455;BME280;10386;54.314;10.022;2023-01-28T00:53:29;102933.72;;;0.82;100.00
20455;BME280;10386;54.314;10.022;2023-01-28T00:55:56;102920.38;;;0.80;100.00
20455;BME280;10386;54.314;10.022;2023-01-28T00:58:23;102915.91;;;0.73;100.00
20455;BME280;10386;54.314;10.022;2023-01-28T01:00:50;102922.13;;;0.71;100.00
20455;BME280;10386;54.314;10.022;2023-01-28T01:03:17;102928.38;;;0.79;100.00
20455;BME280;10386;54.314;10.022;2023-01-28T01:05:45;102947.06;;;0.56;100.00
20455;BME280;10386;54.314;10.022;2023-01-28T01:08:12;102951.47;;;0.56;100.00
20455;BME280;10386;54.314;10.022;2023-01-28T01:10:38;102944.38;;;0.53;100.00
20455;BME280;10386;54.314;10.022;2023-01-28T01:13:06;102946.16;;;0.60;100.00
20455;BME280;10386;54.314;10.022;2023-01-28T01:15:33;102944.38;;;0.56;100.00
20455;BME280;10386;54.314;10.022;2023-01-28T01:17:59;102945.25;;;0.54;100.00
20455;BME280;10386;54.314;10.022;2023-01-28T01:20:28;102947.91;;;0.54;100.00
20455;BME280;10386;54.314;10.022;2023-01-28T01:22:55;102947.94;;;0.57;100.00
20455;BME280;10386;54.314;10.022;2023-01-28T01:25:22;102954.16;;;0.51;100.00
20455;BME280;10386;54.314;10.022;2023-01-28T01:27:48;102951.47;;;0.53;100.00
20455;BME280;10386;54.314;10.022;2023-01-28T01:30:16;102950.56;;;0.42;100.00
20455;BME280;10386;54.314;10.022;2023-01-28T01:32:43;102939.84;;;0.39;100.00
20455;BME280;10386;54.314;10.022;2023-01-28T01:35:09;102934.50;;;0.37;100.00
20455;BME280;10386;54.314;10.022;2023-01-28T01:37:36;102937.13;;;0.25;100.00
20455;BME280;10386;54.314;10.022;2023-01-28T01:40:04;102932.69;;;0.29;100.00
20455;BME280;10386;54.314;10.022;2023-01-28T01:42:31;102929.13;;;0.31;100.00
20455;BME280;10386;54.314;10.022;2023-01-28T01:49:55;102926.22;;;-0.18;100.00
20455;BME280;10386;54.314;10.022;2023-01-28T01:52:27;102920.06;;;-0.09;100.00
20455;BME280;10386;54.314;10.022;2023-01-28T01:54:58;102909.41;;;-0.06;100.00
20455;BME280;10386;54.314;10.022;2023-01-28T01:57:30;102914.72;;;-0.09;100.00
20455;BME280;10386;54.314;10.022;2023-01-28T01:59:59;102913.75;;;-0.22;100.00
20455;BME280;10386;54.314;10.022;2023-01-28T02:02:38;102914.56;;;-0.35;100.00
20455;BME280;10386;54.314;10.022;2023-01-28T02:05:10;102915.44;;;-0.37;100.00
20455;BME280;10386;54.314;10.022;2023-01-28T02:07:37;102913.53;;;-0.55;100.00
20455;BME280;10386;54.314;10.022;2023-01-28T02:10:05;102923.19;;;-0.70;100.00
20455;BME280;10386;54.314;10.022;2023-01-28T02:12:35;102920.56;;;-0.69;100.00
20455;BME280;10386;54.314;10.022;2023-01-28T02:15:16;102924.16;;;-0.64;100.00
20455;BME280;10386;54.314;10.022;2023-01-28T02:17:45;102920.59;;;-0.66;100.00
20455;BME280;10386;54.314;10.022;2023-01-28T02:20:21;102921.44;;;-0.68;100.00
20455;BME280;10386;54.314;10.022;2023-01-28T02:23:17;102923.00;;;-0.94;100.00
20455;BME280;10386;54.314;10.022;2023-01-28T02:31:09;102918.59;;;-0.88;100.00
20455;BME280;10386;54.314;10.022;2023-01-28T02:33:58;102904.22;;;-1.08;100.00
20455;BME280;10386;54.314;10.022;2023-01-28T02:36:36;102906.94;;;-1.02;100.00
20455;BME280;10386;54.314;10.022;2023-01-28T02:39:12;102905.16;;;-1.04;100.00
20455;BME280;10386;54.314;10.022;2023-01-28T02:41:56;102897.97;;;-1.14;100.00
20455;BME280;10386;54.314;10.022;2023-01-28T02:44:25;102896.19;;;-1.11;100.00
20455;BME280;10386;54.314;10.022;2023-01-28T02:46:52;102897.00;;;-1.22;100.00
20455;BME280;10386;54.314;10.022;2023-01-28T02:49:45;102891.56;;;-1.33;100.00
20455;BME280;10386;54.314;10.022;2023-01-28T02:52:21;102889.88;;;-1.23;100.00
20455;BME280;10386;54.314;10.022;2023-01-28T03:03:19;102888.59;;;-1.62;100.00
20455;BME280;10386;54.314;10.022;2023-01-28T03:05:59;102886.81;;;-1.63;100.00
20455;BME280;10386;54.314;10.022;2023-01-28T03:11:19;102879.75;;;-1.58;100.00
20455;BME280;10386;54.314;10.022;2023-01-28T03:14:06;102878.00;;;-1.56;100.00
20455;BME280;10386;54.314;10.022;2023-01-28T03:16:54;102883.38;;;-1.50;100.00
20455;BME280;10386;54.314;10.022;2023-01-28T03:19:41;102870.09;;;-1.47;100.00
20455;BME280;10386;54.314;10.022;2023-01-28T03:22:28;102866.53;;;-1.49;100.00
20455;BME280;10386;54.314;10.022;2023-01-28T03:25:17;102861.13;;;-1.57;100.00
20455;BME280;10386;54.314;10.022;2023-01-28T03:28:08;102868.16;;;-1.63;100.00
20455;BME280;10386;54.314;10.022;2023-01-28T03:31:13;102866.38;;;-1.64;100.00
20455;BME280;10386;54.314;10.022;2023-01-28T03:34:01;102855.69;;;-1.66;100.00
20455;BME280;10386;54.314;10.022;2023-01-28T03:36:48;102866.81;;;-2.01;100.00
20455;BME280;10386;54.314;10.022;2023-01-28T03:39:22;102870.47;;;-1.93;100.00
20455;BME280;10386;54.314;10.022;2023-01-28T03:44:31;102849.31;;;-1.81;100.00
20455;BME280;10386;54.314;10.022;2023-01-28T03:47:27;102846.75;;;-1.72;100.00
20455;BME280;10386;54.314;10.022;2023-01-28T03:49:55;102841.41;;;-1.72;100.00
20455;BME280;10386;54.314;10.022;2023-01-28T03:52:30;102842.00;;;-2.00;100.00
20455;BME280;10386;54.314;10.022;2023-01-28T03:54:58;102847.22;;;-2.11;100.00
20455;BME280;10386;54.314;10.022;2023-01-28T03:57:27;102840.19;;;-2.04;100.00
20455;BME280;10386;54.314;10.022;2023-01-28T03:59:54;102839.38;;;-1.99;100.00
20455;BME280;10386;54.314;10.022;2023-01-28T04:02:21;102844.56;;;-2.11;100.00
20455;BME280;10386;54.314;10.022;2023-01-28T04:04:48;102853.38;;;-2.13;100.00
20455;BME280;10386;54.314;10.022;2023-01-28T04:07:16;102856.06;;;-2.12;100.00
20455;BME280;10386;54.314;10.022;2023-01-28T04:09:43;102865.72;;;-2.17;100.00
20455;BME280;10386;54.314;10.022;2023-01-28T04:12:10;102858.63;;;-2.19;100.00
20455;BME280;10386;54.314;10.022;2023-01-28T04:14:38;102860.25;;;-2.29;100.00
20455;BME280;10386;54.314;10.022;2023-01-28T04:17:07;102862.69;;;-2.47;100.00
20455;BME280;10386;54.314;10.022;2023-01-28T04:19:37;102865.47;;;-2.39;100.00
20455;BME280;10386;54.314;10.022;2023-01-28T04:22:06;102854.88;;;-2.35;100.00
20455;BME280;10386;54.314;10.022;2023-01-28T04:24:33;102857.56;;;-2.33;100.00
20455;BME280;10386;54.314;10.022;2023-01-28T04:27:00;102852.34;;;-2.23;100.00
20455;BME280;10386;54.314;10.022;2023-01-28T04:29:26;102842.81;;;-2.09;100.00
20455;BME280;10386;54.314;10.022;2023-01-28T04:31:53;102830.41;;;-2.07;100.00
20455;BME280;10386;54.314;10.022;2023-01-28T04:34:20;102818.91;;;-2.04;100.00
20455;BME280;10386;54.314;10.022;2023-01-28T04:36:47;102814.44;;;-2.05;100.00
20455;BME280;10386;54.314;10.022;2023-01-28T04:39:13;102826.63;;;-2.24;100.00
20455;BME280;10386;54.314;10.022;2023-01-28T04:41:40;102820.53;;;-2.15;100.00
20455;BME280;10386;54.314;10.022;2023-01-28T04:44:07;102824.88;;;-2.23;100.00
20455;BME280;10386;54.314;10.022;2023-01-28T04:46:34;102823.94;;;-2.27;100.00
20455;BME280;10386;54.314;10.022;2023-01-28T04:49:00;102814.09;;;-2.34;100.00
20455;BME280;10386;54.314;10.022;2023-01-28T04:51:29;102813.19;;;-2.37;100.00
20455;BME280;10386;54.314;10.022;2023-01-28T04:53:55;102800.88;;;-2.29;100.00
20455;BME280;10386;54.314;10.022;2023-01-28T04:56:22;102784.97;;;-2.22;100.00
20455;BME280;10386;54.314;10.022;2023-01-28T04:58:49;102776.19;;;-2.16;100.00
20455;BME280;10386;54.314;10.022;2023-01-28T05:01:16;102779.72;;;-2.17;100.00
20455;BME280;10386;54.314;10.022;2023-01-28T05:03:43;102761.19;;;-2.11;100.00
20455;BME280;10386;54.314;10.022;2023-01-28T05:06:09;102750.53;;;-2.11;100.00
20455;BME280;10386;54.314;10.022;2023-01-28T05:08:36;102743.47;;;-2.09;100.00
20455;BME280;10386;54.314;10.022;2023-01-28T05:11:03;102743.28;;;-2.27;100.00
20455;BME280;10386;54.314;10.022;2023-01-28T05:13:30;102757.31;;;-2.40;100.00
20455;BME280;10386;54.314;10.022;2023-01-28T05:15:57;102747.63;;;-2.35;100.00
20455;BME280;10386;54.314;10.022;2023-01-28T05:18:23;102723.75;;;-2.29;100.00
20455;BME280;10386;54.314;10.022;2023-01-28T05:20:50;102731.63;;;-2.37;100.00
20455;BME280;10386;54.314;10.022;2023-01-28T05:23:17;102737.84;;;-2.36;100.00
20455;BME280;10386;54.314;10.022;2023-01-28T05:25:43;102710.47;;;-2.25;100.00
20455;BME280;10386;54.314;10.022;2023-01-28T05:28:11;102702.53;;;-2.22;100.00
20455;BME280;10386;54.314;10.022;2023-01-28T05:30:38;102712.22;;;-2.27;100.00
20455;BME280;10386;54.314;10.022;2023-01-28T05:33:05;102713.16;;;-2.23;100.00
20455;BME280;10386;54.314;10.022;2023-01-28T05:35:32;102708.72;;;-2.24;100.00
20455;BME280;10386;54.314;10.022;2023-01-28T05:37:59;102691.00;;;-2.21;100.00
20455;BME280;10386;54.314;10.022;2023-01-28T05:40:25;102683.94;;;-2.20;100.00
20455;BME280;10386;54.314;10.022;2023-01-28T05:42:52;102683.03;;;-2.21;100.00
20455;BME280;10386;54.314;10.022;2023-01-28T05:45:19;102681.25;;;-2.22;100.00
20455;BME280;10386;54.314;10.022;2023-01-28T05:47:46;102681.38;;;-2.11;100.00
20455;BME280;10386;54.314;10.022;2023-01-28T05:50:14;102684.00;;;-2.14;100.00
20455;BME280;10386;54.314;10.022;2023-01-28T05:52:41;102697.19;;;-2.25;100.00
20455;BME280;10386;54.314;10.022;2023-01-28T05:55:09;102696.34;;;-2.21;100.00
20455;BME280;10386;54.314;10.022;2023-01-28T05:57:35;102689.22;;;-2.26;100.00
20455;BME280;10386;54.314;10.022;2023-01-28T06:00:03;102699.78;;;-2.31;100.00
20455;BME280;10386;54.314;10.022;2023-01-28T06:02:31;102697.94;;;-2.38;100.00
20455;BME280;10386;54.314;10.022;2023-01-28T06:04:58;102696.09;;;-2.46;100.00
20455;BME280;10386;54.314;10.022;2023-01-28T06:07:25;102699.47;;;-2.56;100.00
20455;BME280;10386;54.314;10.022;2023-01-28T06:09:52;102711.78;;;-2.64;100.00
20455;BME280;10386;54.314;10.022;2023-01-28T06:12:19;102706.59;;;-2.57;100.00
20455;BME280;10386;54.314;10.022;2023-01-28T06:14:46;102711.06;;;-2.54;100.00
20455;BME280;10386;54.314;10.022;2023-01-28T06:17:13;102717.94;;;-2.68;100.00
20455;BME280;10386;54.314;10.022;2023-01-28T06:19:39;102712.81;;;-2.55;100.00
20455;BME280;10386;54.314;10.022;2023-01-28T06:22:06;102707.63;;;-2.43;100.00
20455;BME280;10386;54.314;10.022;2023-01-28T06:24:33;102716.66;;;-2.30;100.00
20455;BME280;10386;54.314;10.022;2023-01-28T06:26:59;102714.94;;;-2.25;100.00
20455;BME280;10386;54.314;10.022;2023-01-28T06:29:26;102722.13;;;-2.14;100.00
20455;BME280;10386;54.314;10.022;2023-01-28T06:31:53;102714.13;;;-2.14;100.00
20455;BME280;10386;54.314;10.022;2023-01-28T06:34:20;102701.78;;;-2.12;100.00
20455;BME280;10386;54.314;10.022;2023-01-28T06:36:47;102707.94;;;-2.14;100.00
20455;BME280;10386;54.314;10.022;2023-01-28T06:39:14;102699.97;;;-2.13;100.00
20455;BME280;10386;54.314;10.022;2023-01-28T06:41:41;102698.22;;;-2.12;100.00
20455;BME280;10386;54.314;10.022;2023-01-28T06:44:08;102700.03;;;-2.10;100.00
20455;BME280;10386;54.314;10.022;2023-01-28T06:46:35;102689.34;;;-2.11;100.00
20455;BME280;10386;54.314;10.022;2023-01-28T06:49:02;102688.50;;;-2.07;100.00
20455;BME280;10386;54.314;10.022;2023-01-28T06:51:28;102671.91;;;-1.78;100.00
20455;BME280;10386;54.314;10.022;2023-01-28T06:53:55;102673.69;;;-1.77;100.00
20455;BME280;10386;54.314;10.022;2023-01-28T06:56:22;102686.94;;;-1.81;100.00
20455;BME280;10386;54.314;10.022;2023-01-28T06:58:49;102690.50;;;-1.79;100.00
20455;BME280;10386;54.314;10.022;2023-01-28T07:01:16;102676.31;;;-1.81;100.00
20455;BME280;10386;54.314;10.022;2023-01-28T07:03:43;102679.81;;;-1.85;100.00
20455;BME280;10386;54.314;10.022;2023-01-28T07:06:09;102690.50;;;-1.84;100.00
20455;BME280;10386;54.314;10.022;2023-01-28T07:08:37;102694.97;;;-1.75;100.00
20455;BME280;10386;54.314;10.022;2023-01-28T07:11:05;102686.25;;;-1.58;100.00
20455;BME280;10386;54.314;10.022;2023-01-28T07:13:31;102670.38;;;-1.44;100.00
20455;BME280;10386;54.314;10.022;2023-01-28T07:15:59;102682.84;;;-1.39;100.00
20455;BME280;10386;54.314;10.022;2023-01-28T07:18:25;102674.91;;;-1.35;100.00
20455;BME280;10386;54.314;10.022;2023-01-28T07:20:52;102667.84;;;-1.24;100.00
20455;BME280;10386;54.314;10.022;2023-01-28T07:23:19;102667.03;;;-1.12;100.00
20455;BME280;10386;54.314;10.022;2023-01-28T07:25:46;102651.09;;;-1.02;100.00
20455;BME280;10386;54.314;10.022;2023-01-28T07:28:12;102656.44;;;-0.97;100.00
20455;BME280;10386;54.314;10.022;2023-01-28T07:30:39;102662.69;;;-0.91;100.00
20455;BME280;10386;54.314;10.022;2023-01-28T07:33:06;102658.28;;;-0.81;100.00
20455;BME280;10386;54.314;10.022;2023-01-28T07:35:33;102648.56;;;-0.75;100.00
20455;BME280;10386;54.314;10.022;2023-01-28T07:38:00;102643.22;;;-0.72;100.00
20455;BME280;10386;54.314;10.022;2023-01-28T07:40:28;102661.00;;;-0.71;100.00
20455;BME280;10386;54.314;10.022;2023-01-28T07:42:55;102658.34;;;-0.66;100.00
20455;BME280;10386;54.314;10.022;2023-01-28T07:45:23;102661.06;;;-0.56;100.00
20455;BME280;10386;54.314;10.022;2023-01-28T07:47:58;102653.06;;;-0.50;100.00
20455;BME280;10386;54.314;10.022;2023-01-28T07:50:26;102655.72;;;-0.50;100.00
20455;BME280;10386;54.314;10.022;2023-01-28T07:52:55;102656.63;;;-0.48;100.00
20455;BME280;10386;54.314;10.022;2023-01-28T07:55:23;102662.84;;;-0.43;100.00
20455;BME280;10386;54.314;10.022;2023-01-28T08:00:18;102662.00;;;-0.21;100.00
20455;BME280;10386;54.314;10.022;2023-01-28T08:02:46;102666.47;;;-0.05;100.00
20455;BME280;10386;54.314;10.022;2023-01-28T08:05:17;102665.59;;;-0.05;100.00
20455;BME280;10386;54.314;10.022;2023-01-28T08:07:44;102675.41;;;0.06;100.00
20455;BME280;10386;54.314;10.022;2023-01-28T08:10:11;102669.16;;;0.11;100.00
20455;BME280;10386;54.314;10.022;2023-01-28T08:12:39;102679.84;;;0.17;100.00
20455;BME280;10386;54.314;10.022;2023-01-28T08:15:06;102679.84;;;0.28;100.00
20455;BME280;10386;54.314;10.022;2023-01-28T08:17:33;102693.22;;;0.25;100.00
20455;BME280;10386;54.314;10.022;2023-01-28T08:20:00;102693.22;;;0.34;100.00
20455;BME280;10386;54.314;10.022;2023-01-28T08:22:27;102680.72;;;0.34;100.00
20455;BME280;10386;54.314;10.022;2023-01-28T08:24:54;102674.50;;;0.46;100.00
20455;BME280;10386;54.314;10.022;2023-01-28T08:27:20;102675.41;;;0.42;100.00
20455;BME280;10386;54.314;10.022;2023-01-28T08:29:47;102687.84;;;0.38;100.00
20455;BME280;10386;54.314;10.022;2023-01-28T08:32:14;102694.97;;;0.41;100.00
20455;BME280;10386;54.314;10.022;2023-01-28T08:34:40;102695.84;;;0.58;100.00
20455;BME280;10386;54.314;10.022;2023-01-28T08:37:07;102703.00;;;0.60;100.00
20455;BME280;10386;54.314;10.022;2023-01-28T08:39:34;102703.88;;;0.58;100.00
20455;BME280;10386;54.314;10.022;2023-01-28T08:42:00;102716.34;;;0.65;100.00
20455;BME280;10386;54.314;10.022;2023-01-28T08:44:27;102727.06;;;0.54;100.00
20455;BME280;10386;54.314;10.022;2023-01-28T08:46:54;102730.59;;;0.58;100.00
20455;BME280;10386;54.314;10.022;2023-01-28T08:49:20;102721.69;;;0.62;100.00
20455;BME280;10386;54.314;10.022;2023-01-28T08:51:47;102736.81;;;0.69;100.00
20455;BME280;10386;54.314;10.022;2023-01-28T08:54:14;102743.06;;;0.75;100.00
20455;BME280;10386;54.314;10.022;2023-01-28T08:56:41;102737.72;;;0.75;100.00
20455;BME280;10386;54.314;10.022;2023-01-28T08:59:10;102732.38;;;0.86;100.00
20455;BME280;10386;54.314;10.022;2023-01-28T09:01:37;102722.56;;;0.88;100.00
20455;BME280;10386;54.314;10.022;2023-01-28T09:04:04;102737.72;;;0.89;100.00
20455;BME280;10386;54.314;10.022;2023-01-28T09:06:31;102739.47;;;0.96;100.00
20455;BME280;10386;54.314;10.022;2023-01-28T09:08:59;102725.22;;;0.97;100.00
20455;BME280;10386;54.314;10.022;2023-01-28T09:11:27;102719.88;;;0.94;100.00
20455;BME280;10386;54.314;10.022;2023-01-28T09:13:56;102740.38;;;0.87;100.00
20455;BME280;10386;54.314;10.022;2023-01-28T09:16:23;102734.13;;;0.88;100.00
20455;BME280;10386;54.314;10.022;2023-01-28T09:18:49;102734.13;;;0.91;100.00
20455;BME280;10386;54.314;10.022;2023-01-28T09:21:17;102739.50;;;0.87;100.00
20455;BME280;10386;54.314;10.022;2023-01-28T09:23:43;102727.88;;;0.82;100.00
20455;BME280;10386;54.314;10.022;2023-01-28T09:26:10;102711.84;;;0.95;100.00
20455;BME280;10386;54.314;10.022;2023-01-28T09:28:40;102710.94;;;1.01;100.00
20455;BME280;10386;54.314;10.022;2023-01-28T09:31:09;102719.84;;;1.06;100.00
20455;BME280;10386;54.314;10.022;2023-01-28T09:33:37;102721.59;;;1.08;100.00
20455;BME280;10386;54.314;10.022;2023-01-28T09:36:07;102722.50;;;1.15;100.00
20455;BME280;10386;54.314;10.022;2023-01-28T09:38:33;102726.94;;;1.14;100.00
20455;BME280;10386;54.314;10.022;2023-01-28T09:41:08;102724.25;;;1.16;100.00
20455;BME280;10386;54.314;10.022;2023-01-28T09:46:13;102738.50;;;1.16;100.00
20455;BME280;10386;54.314;10.022;2023-01-28T09:48:44;102746.56;;;1.15;100.00
20455;BME280;10386;54.314;10.022;2023-01-28T09:51:38;102742.09;;;1.14;100.00
20455;BME280;10386;54.314;10.022;2023-01-28T09:54:32;102734.03;;;1.32;100.00
20455;BME280;10386;54.314;10.022;2023-01-28T09:57:08;102748.31;;;1.25;100.00
20455;BME280;10386;54.314;10.022;2023-01-28T09:59:37;102732.28;;;1.16;100.00
20455;BME280;10386;54.314;10.022;2023-01-28T10:08:34;102729.56;;;1.28;100.00
20455;BME280;10386;54.314;10.022;2023-01-28T10:16:53;102713.50;;;1.35;100.00
20455;BME280;10386;54.314;10.022;2023-01-28T10:19:27;102714.41;;;1.34;100.00
20455;BME280;10386;54.314;10.022;2023-01-28T10:21:59;102713.53;;;1.32;100.00
20455;BME280;10386;54.314;10.022;2023-01-28T10:24:45;102697.38;;;1.53;100.00
20455;BME280;10386;54.314;10.022;2023-01-28T10:27:18;102678.66;;;1.48;100.00
20455;BME280;10386;54.314;10.022;2023-01-28T10:29:46;102673.28;;;1.53;100.00
20455;BME280;10386;54.314;10.022;2023-01-28T10:32:22;102671.44;;;1.59;100.00
20455;BME280;10386;54.314;10.022;2023-01-28T10:34:52;102679.44;;;1.62;100.00
20455;BME280;10386;54.314;10.022;2023-01-28T10:37:19;102681.25;;;1.62;100.00
20455;BME280;10386;54.314;10.022;2023-01-28T10:39:46;102678.53;;;1.66;100.00
20455;BME280;10386;54.314;10.022;2023-01-28T10:42:40;102679.38;;;1.76;100.00
20455;BME280;10386;54.314;10.022;2023-01-28T10:45:22;102671.38;;;1.77;100.00
20455;BME280;10386;54.314;10.022;2023-01-28T10:48:06;102665.88;;;1.95;100.00
20455;BME280;10386;54.314;10.022;2023-01-28T10:50:34;102664.13;;;1.91;100.00
20455;BME280;10386;54.314;10.022;2023-01-28T10:53:03;102674.84;;;1.91;100.00
20455;BME280;10386;54.314;10.022;2023-01-28T10:58:16;102685.53;;;1.94;100.00
20455;BME280;10386;54.314;10.022;2023-01-28T11:00:43;102676.53;;;2.04;100.00
20455;BME280;10386;54.314;10.022;2023-01-28T11:03:17;102684.56;;;2.04;100.00
20455;BME280;10386;54.314;10.022;2023-01-28T11:05:53;102672.00;;;2.14;100.00
20455;BME280;10386;54.314;10.022;2023-01-28T11:08:21;102673.75;;;2.16;100.00
20455;BME280;10386;54.314;10.022;2023-01-28T11:10:50;102694.28;;;2.17;100.00
20455;BME280;10386;54.314;10.022;2023-01-28T11:13:19;102692.38;;;2.31;100.00
20455;BME280;10386;54.314;10.022;2023-01-28T11:15:52;102674.34;;;2.48;100.00
20455;BME280;10386;54.314;10.022;2023-01-28T11:18:29;102676.13;;;2.51;100.00
20455;BME280;10386;54.314;10.022;2023-01-28T11:20:58;102672.59;;;2.44;100.00
20455;BME280;10386;54.314;10.022;2023-01-28T11:23:31;102681.56;;;2.43;100.00
20455;BME280;10386;54.314;10.022;2023-01-28T11:26:05;102679.75;;;2.45;100.00
20455;BME280;10386;54.314;10.022;2023-01-28T11:28:34;102685.03;;;2.56;100.00
20455;BME280;10386;54.314;10.022;2023-01-28T11:31:05;102680.56;;;2.53;100.00
20455;BME280;10386;54.314;10.022;2023-01-28T11:33:36;102683.41;;;2.35;100.00
20455;BME280;10386;54.314;10.022;2023-01-28T11:38:33;102672.00;;;2.14;100.00
20455;BME280;10386;54.314;10.022;2023-01-28T11:41:00;102679.00;;;2.30;100.00
20455;BME280;10386;54.314;10.022;2023-01-28T11:43:29;102687.94;;;2.29;100.00
20455;BME280;10386;54.314;10.022;2023-01-28T11:49:06;102680.78;;;2.29;100.00
20455;BME280;10386;54.314;10.022;2023-01-28T11:51:55;102687.97;;;2.26;100.00
20455;BME280;10386;54.314;10.022;2023-01-28T11:57:30;102669.25;;;2.18;100.00
20455;BME280;10386;54.314;10.022;2023-01-28T12:00:25;102665.59;;;2.28;100.00
20455;BME280;10386;54.314;10.022;2023-01-28T12:11:26;102647.41;;;2.65;100.00
20455;BME280;10386;54.314;10.022;2023-01-28T12:22:22;102661.59;;;2.72;100.00
20455;BME280;10386;54.314;10.022;2023-01-28T12:25:17;102658.91;;;2.75;100.00
20455;BME280;10386;54.314;10.022;2023-01-28T12:39:05;102637.63;;;2.62;100.00
20455;BME280;10386;54.314;10.022;2023-01-28T12:41:41;102641.19;;;2.61;100.00
20455;BME280;10386;54.314;10.022;2023-01-28T12:44:14;102642.88;;;2.71;100.00
20455;BME280;10386;54.314;10.022;2023-01-28T12:52:02;102654.50;;;2.68;100.00
20455;BME280;10386;54.314;10.022;2023-01-28T12:57:25;102657.25;;;2.63;100.00
20455;BME280;10386;54.314;10.022;2023-01-28T13:00:18;102653.72;;;2.59;100.00
20455;BME280;10386;54.314;10.022;2023-01-28T13:02:57;102657.31;;;2.57;100.00
20455;BME280;10386;54.314;10.022;2023-01-28T13:05:37;102660.06;;;2.49;100.00
20455;BME280;10386;54.314;10.022;2023-01-28T13:08:12;102673.47;;;2.48;100.00
20455;BME280;10386;54.314;10.022;2023-01-28T13:10:44;102670.84;;;2.40;100.00
20455;BME280;10386;54.314;10.022;2023-01-28T13:13:31;102660.06;;;2.51;100.00
20455;BME280;10386;54.314;10.022;2023-01-28T13:16:00;102659.28;;;2.37;100.00
20455;BME280;10386;54.314;10.022;2023-01-28T13:21:03;102650.25;;;2.45;100.00
20455;BME280;10386;54.314;10.022;2023-01-28T13:23:41;102663.56;;;2.57;100.00
20455;BME280;10386;54.314;10.022;2023-01-28T13:26:56;102653.78;;;2.52;100.00
20455;BME280;10386;54.314;10.022;2023-01-28T13:31:51;102663.50;;;2.63;100.00
20455;BME280;10386;54.314;10.022;2023-01-28T13:34:31;102668.78;;;2.72;100.00
20455;BME280;10386;54.314;10.022;2023-01-28T13:37:24;102663.44;;;2.67;100.00
20455;BME280;10386;54.314;10.022;2023-01-28T13:39:50;102643.75;;;2.73;100.00
20455;BME280;10386;54.314;10.022;2023-01-28T13:42:26;102634.75;;;2.77;100.00
20455;BME280;10386;54.314;10.022;2023-01-28T13:44:55;102617.72;;;2.81;100.00
20455;BME280;10386;54.314;10.022;2023-01-28T13:47:34;102616.91;;;2.74;100.00
20455;BME280;10386;54.314;10.022;2023-01-28T13:50:05;102623.09;;;2.79;100.00
20455;BME280;10386;54.314;10.022;2023-01-28T13:53:20;102598.66;;;3.05;100.00
20455;BME280;10386;54.314;10.022;2023-01-28T13:55:52;102605.84;;;3.03;100.00
20455;BME280;10386;54.314;10.022;2023-01-28T13:58:32;102608.47;;;3.07;100.00
20455;BME280;10386;54.314;10.022;2023-01-28T14:10:33;102621.13;;;2.93;100.00
20455;BME280;10386;54.314;10.022;2023-01-28T14:16:10;102643.47;;;2.98;100.00
20455;BME280;10386;54.314;10.022;2023-01-28T14:18:41;102643.41;;;3.03;100.00
20455;BME280;10386;54.314;10.022;2023-01-28T14:21:12;102633.47;;;3.12;100.00
20455;BME280;10386;54.314;10.022;2023-01-28T14:23:47;102633.50;;;3.09;100.00
20455;BME280;10386;54.314;10.022;2023-01-28T14:31:46;102623.75;;;3.01;100.00
20455;BME280;10386;54.314;10.022;2023-01-28T14:36:42;102628.28;;;2.96;100.00
20455;BME280;10386;54.314;10.022;2023-01-28T14:39:15;102639.91;;;2.95;100.00
20455;BME280;10386;54.314;10.022;2023-01-28T14:41:44;102656.00;;;2.93;100.00
20455;BME280;10386;54.314;10.022;2023-01-28T14:44:24;102662.25;;;2.95;100.00
20455;BME280;10386;54.314;10.022;2023-01-28T14:55:00;102602.50;;;2.83;100.00
20455;BME280;10386;54.314;10.022;2023-01-28T14:57:46;102598.97;;;2.79;100.00
20455;BME280;10386;54.314;10.022;2023-01-28T15:00:20;102607.00;;;2.79;100.00